sensor_id;sensor_type;location;lat;lon;timestamp;P1;durP1;ratioP1;P2;durP2;ratioP2
49153;SDS011;49455;52.252;9.124;2023-02-10T00:00:23;74.93;;;34.73;;
49153;SDS011;49455;52.252;9.124;2023-02-10T00:05:23;76.23;;;35.93;;
49153;SDS011;49455;52.252;9.124;2023-02-10T00:10:24;78.77;;;36.53;;
49153;SDS011;49455;52.252;9.124;2023-02-10T00:15:24;77.87;;;36.77;;
49153;SDS011;49455;52.252;9.124;2023-02-10T00:20:25;79.30;;;38.00;;
49153;SDS011;49455;52.252;9.124;2023-02-10T00:25:25;71.23;;;35.27;;
49153;SDS011;49455;52.252;9.124;2023-02-10T00:30:25;78.70;;;36.13;;
49153;SDS011;49455;52.252;9.124;2023-02-10T00:35:26;70.33;;;36.50;;
49153;SDS011;49455;52.252;9.124;2023-02-10T00:40:27;72.77;;;36.67;;
49153;SDS011;49455;52.252;9.124;2023-02-10T00:45:27;84.50;;;38.70;;
49153;SDS011;49455;52.252;9.124;2023-02-10T00:50:28;74.70;;;36.77;;
49153;SDS011;49455;52.252;9.124;2023-02-10T00:55:28;76.77;;;36.40;;
49153;SDS011;49455;52.252;9.124;2023-02-10T01:00:30;70.82;;;37.75;;
49153;SDS011;49455;52.252;9.124;2023-02-10T01:05:30;79.87;;;38.37;;
49153;SDS011;49455;52.252;9.124;2023-02-10T01:10:32;81.23;;;38.03;;
49153;SDS011;49455;52.252;9.124;2023-02-10T01:15:33;85.00;;;39.17;;
49153;SDS011;49455;52.252;9.124;2023-02-10T01:20:34;80.37;;;39.17;;
49153;SDS011;49455;52.252;9.124;2023-02-10T01:25:35;76.30;;;37.60;;
49153;SDS011;49455;52.252;9.124;2023-02-10T01:30:36;76.88;;;36.42;;
49153;SDS011;49455;52.252;9.124;2023-02-10T01:35:37;76.43;;;35.60;;
49153;SDS011;49455;52.252;9.124;2023-02-10T01:40:38;79.87;;;38.63;;
49153;SDS011;49455;52.252;9.124;2023-02-10T01:45:39;76.07;;;38.27;;
49153;SDS011;49455;52.252;9.124;2023-02-10T01:50:59;79.77;;;35.87;;
49153;SDS011;49455;52.252;9.124;2023-02-10T01:56:03;76.20;;;36.38;;
49153;SDS011;49455;52.252;9.124;2023-02-10T02:01:04;75.00;;;36.33;;
49153;SDS011;49455;52.252;9.124;2023-02-10T02:06:05;71.33;;;36.10;;
49153;SDS011;49455;52.252;9.124;2023-02-10T02:27:04;72.50;;;35.33;;
49153;SDS011;49455;52.252;9.124;2023-02-10T02:32:27;76.57;;;37.28;;
49153;SDS011;49455;52.252;9.124;2023-02-10T02:37:33;75.72;;;35.80;;
49153;SDS011;49455;52.252;9.124;2023-02-10T02:42:39;76.30;;;34.72;;
49153;SDS011;49455;52.252;9.124;2023-02-10T02:47:48;77.07;;;34.83;;
49153;SDS011;49455;52.252;9.124;2023-02-10T02:58:44;69.20;;;33.45;;
49153;SDS011;49455;52.252;9.124;2023-02-10T03:03:51;67.50;;;31.88;;
49153;SDS011;49455;52.252;9.124;2023-02-10T03:08:53;68.45;;;31.75;;
49153;SDS011;49455;52.252;9.124;2023-02-10T03:13:53;64.03;;;31.60;;
49153;SDS011;49455;52.252;9.124;2023-02-10T03:18:54;63.20;;;30.77;;
49153;SDS011;49455;52.252;9.124;2023-02-10T03:23:54;64.33;;;32.50;;
49153;SDS011;49455;52.252;9.124;2023-02-10T03:28:55;64.60;;;31.93;;
49153;SDS011;49455;52.252;9.124;2023-02-10T03:33:55;71.73;;;32.23;;
49153;SDS011;49455;52.252;9.124;2023-02-10T03:38:56;70.37;;;33.50;;
49153;SDS011;49455;52.252;9.124;2023-02-10T03:43:56;70.67;;;35.20;;
49153;SDS011;49455;52.252;9.124;2023-02-10T03:48:57;75.23;;;35.73;;
49153;SDS011;49455;52.252;9.124;2023-02-10T03:53:57;65.73;;;32.30;;
49153;SDS011;49455;52.252;9.124;2023-02-10T03:59:01;73.73;;;32.73;;
49153;SDS011;49455;52.252;9.124;2023-02-10T04:04:02;62.60;;;30.95;;
49153;SDS011;49455;52.252;9.124;2023-02-10T04:09:02;67.27;;;31.87;;
49153;SDS011;49455;52.252;9.124;2023-02-10T04:14:03;75.50;;;34.80;;
49153;SDS011;49455;52.252;9.124;2023-02-10T04:19:03;74.60;;;34.47;;
49153;SDS011;49455;52.252;9.124;2023-02-10T04:24:03;84.00;;;36.03;;
49153;SDS011;49455;52.252;9.124;2023-02-10T04:29:04;73.47;;;33.43;;
49153;SDS011;49455;52.252;9.124;2023-02-10T04:34:05;77.47;;;36.27;;
49153;SDS011;49455;52.252;9.124;2023-02-10T04:39:05;87.10;;;36.30;;
49153;SDS011;49455;52.252;9.124;2023-02-10T04:44:06;76.73;;;34.60;;
49153;SDS011;49455;52.252;9.124;2023-02-10T04:49:06;75.83;;;35.23;;
49153;SDS011;49455;52.252;9.124;2023-02-10T04:54:07;73.37;;;34.90;;
49153;SDS011;49455;52.252;9.124;2023-02-10T04:59:07;84.47;;;36.63;;
49153;SDS011;49455;52.252;9.124;2023-02-10T05:04:07;87.60;;;37.53;;
49153;SDS011;49455;52.252;9.124;2023-02-10T05:09:08;90.37;;;38.17;;
49153;SDS011;49455;52.252;9.124;2023-02-10T05:14:08;87.07;;;39.30;;
49153;SDS011;49455;52.252;9.124;2023-02-10T05:19:08;87.13;;;40.60;;
49153;SDS011;49455;52.252;9.124;2023-02-10T05:24:09;99.30;;;41.27;;
49153;SDS011;49455;52.252;9.124;2023-02-10T05:29:09;87.80;;;37.63;;
49153;SDS011;49455;52.252;9.124;2023-02-10T05:34:10;87.20;;;39.97;;
49153;SDS011;49455;52.252;9.124;2023-02-10T05:39:10;102.70;;;42.70;;
49153;SDS011;49455;52.252;9.124;2023-02-10T05:44:11;93.67;;;42.10;;
49153;SDS011;49455;52.252;9.124;2023-02-10T05:49:11;88.40;;;38.43;;
49153;SDS011;49455;52.252;9.124;2023-02-10T05:54:12;105.33;;;43.83;;
49153;SDS011;49455;52.252;9.124;2023-02-10T05:59:12;90.63;;;43.50;;
49153;SDS011;49455;52.252;9.124;2023-02-10T06:04:13;105.17;;;44.77;;
49153;SDS011;49455;52.252;9.124;2023-02-10T06:09:14;101.20;;;45.33;;
49153;SDS011;49455;52.252;9.124;2023-02-10T06:14:14;98.13;;;44.63;;
49153;SDS011;49455;52.252;9.124;2023-02-10T06:19:14;108.07;;;46.17;;
49153;SDS011;49455;52.252;9.124;2023-02-10T06:24:15;102.50;;;45.13;;
49153;SDS011;49455;52.252;9.124;2023-02-10T06:29:15;100.80;;;46.43;;
49153;SDS011;49455;52.252;9.124;2023-02-10T06:34:16;102.47;;;47.07;;
49153;SDS011;49455;52.252;9.124;2023-02-10T06:39:16;102.83;;;46.10;;
49153;SDS011;49455;52.252;9.124;2023-02-10T06:44:17;102.17;;;47.87;;
49153;SDS011;49455;52.252;9.124;2023-02-10T06:49:17;105.70;;;47.03;;
49153;SDS011;49455;52.252;9.124;2023-02-10T06:54:18;101.00;;;46.03;;
49153;SDS011;49455;52.252;9.124;2023-02-10T06:59:18;117.03;;;48.37;;
49153;SDS011;49455;52.252;9.124;2023-02-10T07:04:19;106.97;;;47.43;;
49153;SDS011;49455;52.252;9.124;2023-02-10T07:09:19;105.93;;;46.43;;
49153;SDS011;49455;52.252;9.124;2023-02-10T07:14:20;108.87;;;47.37;;
49153;SDS011;49455;52.252;9.124;2023-02-10T07:19:20;115.83;;;50.17;;
49153;SDS011;49455;52.252;9.124;2023-02-10T07:24:21;116.80;;;49.07;;
49153;SDS011;49455;52.252;9.124;2023-02-10T07:29:21;110.80;;;45.87;;
49153;SDS011;49455;52.252;9.124;2023-02-10T07:34:21;109.13;;;47.07;;
49153;SDS011;49455;52.252;9.124;2023-02-10T07:39:22;108.70;;;44.90;;
49153;SDS011;49455;52.252;9.124;2023-02-10T07:44:23;106.70;;;46.78;;
49153;SDS011;49455;52.252;9.124;2023-02-10T07:49:24;107.73;;;46.43;;
49153;SDS011;49455;52.252;9.124;2023-02-10T07:54:24;111.00;;;48.33;;
49153;SDS011;49455;52.252;9.124;2023-02-10T07:59:25;115.37;;;48.00;;
49153;SDS011;49455;52.252;9.124;2023-02-10T08:04:25;120.13;;;47.33;;
49153;SDS011;49455;52.252;9.124;2023-02-10T08:09:25;113.97;;;47.47;;
49153;SDS011;49455;52.252;9.124;2023-02-10T08:14:26;121.37;;;50.00;;
49153;SDS011;49455;52.252;9.124;2023-02-10T08:19:26;114.30;;;47.20;;
49153;SDS011;49455;52.252;9.124;2023-02-10T08:24:27;115.40;;;46.30;;
49153;SDS011;49455;52.252;9.124;2023-02-10T08:29:27;103.30;;;45.00;;
49153;SDS011;49455;52.252;9.124;2023-02-10T08:34:28;117.03;;;49.20;;
49153;SDS011;49455;52.252;9.124;2023-02-10T08:39:28;118.03;;;50.17;;
49153;SDS011;49455;52.252;9.124;2023-02-10T08:44:31;109.83;;;46.00;;
49153;SDS011;49455;52.252;9.124;2023-02-10T08:49:31;109.05;;;46.50;;
49153;SDS011;49455;52.252;9.124;2023-02-10T08:54:31;114.33;;;45.43;;
49153;SDS011;49455;52.252;9.124;2023-02-10T08:59:32;115.47;;;46.33;;
49153;SDS011;49455;52.252;9.124;2023-02-10T09:04:32;110.40;;;46.67;;
49153;SDS011;49455;52.252;9.124;2023-02-10T09:09:36;115.40;;;47.73;;
49153;SDS011;49455;52.252;9.124;2023-02-10T09:14:38;118.43;;;47.53;;
49153;SDS011;49455;52.252;9.124;2023-02-10T09:19:38;117.95;;;45.85;;
49153;SDS011;49455;52.252;9.124;2023-02-10T09:24:39;117.43;;;47.77;;
49153;SDS011;49455;52.252;9.124;2023-02-10T09:29:39;116.50;;;47.30;;
49153;SDS011;49455;52.252;9.124;2023-02-10T09:34:40;122.33;;;52.90;;
49153;SDS011;49455;52.252;9.124;2023-02-10T09:39:40;123.87;;;48.27;;
49153;SDS011;49455;52.252;9.124;2023-02-10T09:44:41;119.57;;;50.70;;
49153;SDS011;49455;52.252;9.124;2023-02-10T09:55:00;124.63;;;51.22;;
49153;SDS011;49455;52.252;9.124;2023-02-10T10:00:05;119.10;;;48.22;;
49153;SDS011;49455;52.252;9.124;2023-02-10T10:05:28;124.32;;;49.53;;
49153;SDS011;49455;52.252;9.124;2023-02-10T10:10:34;122.15;;;50.95;;
49153;SDS011;49455;52.252;9.124;2023-02-10T10:15:40;126.93;;;52.17;;
49153;SDS011;49455;52.252;9.124;2023-02-10T10:20:51;138.80;;;54.63;;
49153;SDS011;49455;52.252;9.124;2023-02-10T10:26:02;128.25;;;52.70;;
49153;SDS011;49455;52.252;9.124;2023-02-10T10:31:13;126.63;;;51.10;;
49153;SDS011;49455;52.252;9.124;2023-02-10T10:36:18;132.93;;;54.05;;
49153;SDS011;49455;52.252;9.124;2023-02-10T10:41:22;133.10;;;55.65;;
49153;SDS011;49455;52.252;9.124;2023-02-10T10:57:30;128.15;;;53.03;;
49153;SDS011;49455;52.252;9.124;2023-02-10T11:02:33;123.70;;;52.65;;
49153;SDS011;49455;52.252;9.124;2023-02-10T11:07:33;136.50;;;52.85;;
49153;SDS011;49455;52.252;9.124;2023-02-10T11:12:38;125.03;;;51.47;;
49153;SDS011;49455;52.252;9.124;2023-02-10T11:17:39;116.15;;;52.63;;
49153;SDS011;49455;52.252;9.124;2023-02-10T11:22:42;121.80;;;52.60;;
49153;SDS011;49455;52.252;9.124;2023-02-10T11:27:53;120.47;;;53.53;;
49153;SDS011;49455;52.252;9.124;2023-02-10T11:32:54;115.32;;;52.08;;
49153;SDS011;49455;52.252;9.124;2023-02-10T11:37:56;107.67;;;46.80;;
49153;SDS011;49455;52.252;9.124;2023-02-10T11:42:59;94.80;;;44.08;;
49153;SDS011;49455;52.252;9.124;2023-02-10T11:48:05;106.55;;;46.35;;
49153;SDS011;49455;52.252;9.124;2023-02-10T11:53:24;104.15;;;47.15;;
49153;SDS011;49455;52.252;9.124;2023-02-10T12:09:05;101.05;;;46.78;;
49153;SDS011;49455;52.252;9.124;2023-02-10T12:24:46;90.05;;;43.45;;
49153;SDS011;49455;52.252;9.124;2023-02-10T12:35:58;95.13;;;44.55;;
49153;SDS011;49455;52.252;9.124;2023-02-10T12:57:33;92.70;;;41.80;;
49153;SDS011;49455;52.252;9.124;2023-02-10T13:07:53;82.43;;;41.78;;
49153;SDS011;49455;52.252;9.124;2023-02-10T13:13:15;78.90;;;38.40;;
49153;SDS011;49455;52.252;9.124;2023-02-10T13:18:26;71.75;;;37.08;;
49153;SDS011;49455;52.252;9.124;2023-02-10T13:23:31;72.97;;;36.22;;
49153;SDS011;49455;52.252;9.124;2023-02-10T13:39:15;68.40;;;34.65;;
49153;SDS011;49455;52.252;9.124;2023-02-10T13:49:31;56.58;;;28.67;;
49153;SDS011;49455;52.252;9.124;2023-02-10T13:54:32;53.15;;;28.02;;
49153;SDS011;49455;52.252;9.124;2023-02-10T13:59:39;57.35;;;28.52;;
49153;SDS011;49455;52.252;9.124;2023-02-10T14:04:42;49.97;;;26.02;;
49153;SDS011;49455;52.252;9.124;2023-02-10T14:09:46;56.55;;;28.40;;
49153;SDS011;49455;52.252;9.124;2023-02-10T14:14:46;56.47;;;27.13;;
49153;SDS011;49455;52.252;9.124;2023-02-10T14:19:47;48.05;;;26.10;;
49153;SDS011;49455;52.252;9.124;2023-02-10T14:24:49;52.38;;;27.15;;
49153;SDS011;49455;52.252;9.124;2023-02-10T14:29:51;50.40;;;26.67;;
49153;SDS011;49455;52.252;9.124;2023-02-10T14:34:58;53.47;;;27.45;;
49153;SDS011;49455;52.252;9.124;2023-02-10T14:40:00;53.20;;;27.02;;
49153;SDS011;49455;52.252;9.124;2023-02-10T14:45:02;51.72;;;26.05;;
49153;SDS011;49455;52.252;9.124;2023-02-10T14:50:04;50.47;;;25.70;;
49153;SDS011;49455;52.252;9.124;2023-02-10T15:00:27;50.75;;;26.08;;
49153;SDS011;49455;52.252;9.124;2023-02-10T15:05:30;56.42;;;29.45;;
49153;SDS011;49455;52.252;9.124;2023-02-10T15:10:40;50.80;;;24.50;;
49153;SDS011;49455;52.252;9.124;2023-02-10T15:15:45;49.17;;;25.70;;
49153;SDS011;49455;52.252;9.124;2023-02-10T15:20:51;45.53;;;25.75;;
49153;SDS011;49455;52.252;9.124;2023-02-10T15:26:00;48.65;;;24.83;;
49153;SDS011;49455;52.252;9.124;2023-02-10T15:31:02;56.00;;;28.60;;
49153;SDS011;49455;52.252;9.124;2023-02-10T15:41:25;50.28;;;26.63;;
49153;SDS011;49455;52.252;9.124;2023-02-10T15:46:29;48.75;;;26.08;;
49153;SDS011;49455;52.252;9.124;2023-02-10T15:51:30;50.47;;;25.38;;
49153;SDS011;49455;52.252;9.124;2023-02-10T15:56:31;56.07;;;25.93;;
49153;SDS011;49455;52.252;9.124;2023-02-10T16:01:32;47.45;;;24.92;;
49153;SDS011;49455;52.252;9.124;2023-02-10T16:06:32;45.90;;;24.33;;
49153;SDS011;49455;52.252;9.124;2023-02-10T16:11:35;44.88;;;25.95;;
49153;SDS011;49455;52.252;9.124;2023-02-10T16:16:42;48.58;;;26.15;;
49153;SDS011;49455;52.252;9.124;2023-02-10T16:21:45;48.95;;;25.50;;
49153;SDS011;49455;52.252;9.124;2023-02-10T16:26:46;56.85;;;26.83;;
49153;SDS011;49455;52.252;9.124;2023-02-10T16:31:47;46.80;;;24.67;;
49153;SDS011;49455;52.252;9.124;2023-02-10T16:36:47;51.60;;;26.65;;
49153;SDS011;49455;52.252;9.124;2023-02-10T16:41:48;47.97;;;25.23;;
49153;SDS011;49455;52.252;9.124;2023-02-10T16:46:49;53.78;;;28.40;;
49153;SDS011;49455;52.252;9.124;2023-02-10T16:51:50;50.65;;;27.50;;
49153;SDS011;49455;52.252;9.124;2023-02-10T16:56:50;57.53;;;27.88;;
49153;SDS011;49455;52.252;9.124;2023-02-10T17:01:50;53.03;;;28.20;;
49153;SDS011;49455;52.252;9.124;2023-02-10T17:06:51;53.60;;;28.33;;
49153;SDS011;49455;52.252;9.124;2023-02-10T17:11:52;60.40;;;29.63;;
49153;SDS011;49455;52.252;9.124;2023-02-10T17:16:52;55.08;;;28.75;;
49153;SDS011;49455;52.252;9.124;2023-02-10T17:21:53;55.43;;;29.63;;
49153;SDS011;49455;52.252;9.124;2023-02-10T17:26:53;55.60;;;29.30;;
49153;SDS011;49455;52.252;9.124;2023-02-10T17:31:54;61.72;;;31.48;;
49153;SDS011;49455;52.252;9.124;2023-02-10T17:36:54;61.27;;;31.40;;
49153;SDS011;49455;52.252;9.124;2023-02-10T17:41:55;59.92;;;30.33;;
49153;SDS011;49455;52.252;9.124;2023-02-10T17:46:56;65.90;;;31.75;;
49153;SDS011;49455;52.252;9.124;2023-02-10T17:51:57;55.80;;;29.88;;
49153;SDS011;49455;52.252;9.124;2023-02-10T17:56:58;58.73;;;30.30;;
49153;SDS011;49455;52.252;9.124;2023-02-10T18:01:59;60.42;;;29.63;;
49153;SDS011;49455;52.252;9.124;2023-02-10T18:06:59;61.10;;;31.67;;
49153;SDS011;49455;52.252;9.124;2023-02-10T18:12:00;56.70;;;29.17;;
49153;SDS011;49455;52.252;9.124;2023-02-10T18:17:01;58.20;;;30.38;;
49153;SDS011;49455;52.252;9.124;2023-02-10T18:22:02;59.53;;;27.95;;
49153;SDS011;49455;52.252;9.124;2023-02-10T18:27:02;59.88;;;29.33;;
49153;SDS011;49455;52.252;9.124;2023-02-10T18:32:03;55.47;;;28.52;;
49153;SDS011;49455;52.252;9.124;2023-02-10T18:37:03;52.85;;;28.02;;
49153;SDS011;49455;52.252;9.124;2023-02-10T18:42:03;58.10;;;29.53;;
49153;SDS011;49455;52.252;9.124;2023-02-10T18:47:04;59.97;;;29.50;;
49153;SDS011;49455;52.252;9.124;2023-02-10T18:52:04;58.87;;;30.50;;
49153;SDS011;49455;52.252;9.124;2023-02-10T18:57:05;56.85;;;29.35;;
49153;SDS011;49455;52.252;9.124;2023-02-10T19:02:05;58.45;;;29.63;;
49153;SDS011;49455;52.252;9.124;2023-02-10T19:07:06;62.67;;;31.00;;
49153;SDS011;49455;52.252;9.124;2023-02-10T19:12:06;67.97;;;30.65;;
49153;SDS011;49455;52.252;9.124;2023-02-10T19:17:07;58.95;;;31.30;;
49153;SDS011;49455;52.252;9.124;2023-02-10T19:22:07;57.47;;;31.70;;
49153;SDS011;49455;52.252;9.124;2023-02-10T19:27:07;64.83;;;31.23;;
49153;SDS011;49455;52.252;9.124;2023-02-10T19:32:08;63.93;;;33.43;;
49153;SDS011;49455;52.252;9.124;2023-02-10T19:37:09;66.70;;;34.20;;
49153;SDS011;49455;52.252;9.124;2023-02-10T19:47:10;65.93;;;33.55;;
49153;SDS011;49455;52.252;9.124;2023-02-10T19:52:11;68.07;;;35.83;;
49153;SDS011;49455;52.252;9.124;2023-02-10T19:57:11;63.35;;;32.50;;
49153;SDS011;49455;52.252;9.124;2023-02-10T20:02:12;62.87;;;32.87;;
49153;SDS011;49455;52.252;9.124;2023-02-10T20:07:13;65.32;;;34.17;;
49153;SDS011;49455;52.252;9.124;2023-02-10T20:12:14;63.47;;;34.22;;
49153;SDS011;49455;52.252;9.124;2023-02-10T20:17:14;65.32;;;33.60;;
49153;SDS011;49455;52.252;9.124;2023-02-10T20:22:14;65.65;;;33.35;;
49153;SDS011;49455;52.252;9.124;2023-02-10T20:27:15;60.80;;;33.53;;
49153;SDS011;49455;52.252;9.124;2023-02-10T20:32:15;67.95;;;34.03;;
49153;SDS011;49455;52.252;9.124;2023-02-10T20:37:16;64.70;;;33.30;;
49153;SDS011;49455;52.252;9.124;2023-02-10T20:42:16;70.22;;;35.40;;
49153;SDS011;49455;52.252;9.124;2023-02-10T20:47:17;63.10;;;34.10;;
49153;SDS011;49455;52.252;9.124;2023-02-10T20:52:17;69.30;;;34.57;;
49153;SDS011;49455;52.252;9.124;2023-02-10T20:57:17;71.13;;;35.95;;
49153;SDS011;49455;52.252;9.124;2023-02-10T21:02:18;69.30;;;35.03;;
49153;SDS011;49455;52.252;9.124;2023-02-10T21:07:18;66.18;;;34.22;;
49153;SDS011;49455;52.252;9.124;2023-02-10T21:12:18;67.40;;;35.77;;
49153;SDS011;49455;52.252;9.124;2023-02-10T21:17:19;67.90;;;36.17;;
49153;SDS011;49455;52.252;9.124;2023-02-10T21:22:19;65.55;;;35.33;;
49153;SDS011;49455;52.252;9.124;2023-02-10T21:27:20;68.10;;;37.28;;
49153;SDS011;49455;52.252;9.124;2023-02-10T21:32:20;73.53;;;38.83;;
49153;SDS011;49455;52.252;9.124;2023-02-10T21:37:23;75.57;;;37.85;;
49153;SDS011;49455;52.252;9.124;2023-02-10T21:42:24;69.20;;;37.10;;
49153;SDS011;49455;52.252;9.124;2023-02-10T21:47:24;69.37;;;36.63;;
49153;SDS011;49455;52.252;9.124;2023-02-10T21:52:24;68.97;;;34.78;;
49153;SDS011;49455;52.252;9.124;2023-02-10T21:57:25;71.83;;;39.53;;
49153;SDS011;49455;52.252;9.124;2023-02-10T22:02:25;75.07;;;38.60;;
49153;SDS011;49455;52.252;9.124;2023-02-10T22:07:26;75.60;;;39.15;;
49153;SDS011;49455;52.252;9.124;2023-02-10T22:12:26;76.82;;;39.90;;
49153;SDS011;49455;52.252;9.124;2023-02-10T22:17:27;75.63;;;39.43;;
49153;SDS011;49455;52.252;9.124;2023-02-10T22:22:27;73.78;;;40.22;;
49153;SDS011;49455;52.252;9.124;2023-02-10T22:27:27;80.13;;;41.95;;
49153;SDS011;49455;52.252;9.124;2023-02-10T22:32:28;74.80;;;40.13;;
49153;SDS011;49455;52.252;9.124;2023-02-10T22:37:28;77.93;;;42.60;;
49153;SDS011;49455;52.252;9.124;2023-02-10T22:42:29;84.28;;;42.88;;
49153;SDS011;49455;52.252;9.124;2023-02-10T22:47:30;84.77;;;41.57;;
49153;SDS011;49455;52.252;9.124;2023-02-10T22:52:30;82.43;;;45.27;;
49153;SDS011;49455;52.252;9.124;2023-02-10T22:57:31;83.70;;;43.80;;
49153;SDS011;49455;52.252;9.124;2023-02-10T23:02:31;81.28;;;42.38;;
49153;SDS011;49455;52.252;9.124;2023-02-10T23:07:32;87.50;;;43.28;;
49153;SDS011;49455;52.252;9.124;2023-02-10T23:12:32;88.93;;;44.22;;
49153;SDS011;49455;52.252;9.124;2023-02-10T23:17:33;85.32;;;43.70;;
49153;SDS011;49455;52.252;9.124;2023-02-10T23:22:33;91.10;;;46.57;;
49153;SDS011;49455;52.252;9.124;2023-02-10T23:27:34;91.50;;;47.63;;
49153;SDS011;49455;52.252;9.124;2023-02-10T23:32:34;92.05;;;45.08;;
49153;SDS011;49455;52.252;9.124;2023-02-10T23:37:35;90.78;;;46.22;;
49153;SDS011;49455;52.252;9.124;2023-02-10T23:42:35;88.40;;;44.83;;
49153;SDS011;49455;52.252;9.124;2023-02-10T23:47:36;91.82;;;47.53;;
49153;SDS011;49455;52.252;9.124;2023-02-10T23:52:36;93.13;;;48.05;;
49153;SDS011;49455;52.252;9.124;2023-02-10T23:57:36;100.40;;;48.05;;
